Sea Victory — 3FFY3 — position and weather

sailwx.info

Track history (hours):
 
Tides and Currents Weather Stations Pressure Air Temp Water Temp Dewpoint Dewpoint Depression Visibility Wind Speed Wind Dir Waves Ship Positions

Sea Victory

Last reported at 2017-Dec-01 13:00 UTC. Time now 2017-Dec-11 00:16 UTC.
Position S 28°15' E 035°45'.
Warning: this ship's position is 9 days out of date.

Length 225 m; draft 6.8 m.

Type: Cargo ship. MMSI: 370090000.

Date/timePositionNaut miles runAvg speedWind from/ knotsBaromVisibWave heightAir tempDewpointWater temp
2017-Dec-01 13:00S 28°15' E 035°45'  
2017-Nov-29 03:26S 28°49' E 032°03'0 0.0
2017-Nov-29 02:50S 28°49' E 032°03'0 0.0
2017-Nov-29 02:26S 28°49' E 032°03'0 0.0
2017-Nov-29 01:58S 28°49' E 032°03'2 2.9
2017-Nov-29 01:27S 28°48' E 032°04'4 9.2
2017-Nov-29 01:00S 28°50' E 032°08'1 3.0
2017-Nov-29 00:30S 28°52' E 032°09'1 1.4
2017-Nov-28 23:56S 28°53' E 032°09'0 0.6
2017-Nov-28 23:30S 28°53' E 032°08'4 7.6
2017-Nov-28 23:00S 28°56' E 032°07'1 2.3
2017-Nov-28 22:28S 28°58' E 032°07'0 0.0
2017-Nov-28 21:34S 28°58' E 032°07'0 0.0
2017-Nov-28 21:22S 28°58' E 032°07'0 0.0
2017-Nov-28 17:10S 28°58' E 032°07'0 0.2
2017-Nov-28 16:46S 28°58' E 032°07'0 0.1
2017-Nov-28 16:28S 28°58' E 032°07'0 0.1
2017-Nov-28 15:58S 28°58' E 032°07'0 0.0
2017-Nov-28 14:52S 28°58' E 032°07'0 0.1
2017-Nov-28 14:22S 28°58' E 032°07'0 0.0
2017-Nov-28 13:25S 28°58' E 032°07'0 0.2
2017-Nov-28 12:58S 28°58' E 032°07'0 0.1
2017-Nov-28 12:22S 28°58' E 032°07'0 0.0
2017-Nov-26 11:41S 28°57' E 032°07'0 0.0
2017-Nov-26 11:17S 28°57' E 032°07'0 0.0
2017-Nov-26 10:59S 28°57' E 032°07'0 0.0
2017-Nov-26 01:29S 28°57' E 032°07'0 0.0
2017-Nov-24 03:35S 28°57' E 032°07'0 0.0
2017-Nov-24 03:11S 28°57' E 032°07'0 0.0
2017-Nov-24 02:56S 28°57' E 032°07'  
Track history (hours):
 
Tides and Currents Weather Stations Pressure Air Temp Water Temp Dewpoint Dewpoint Depression Visibility Wind Speed Wind Dir Waves Ship Positions

Sea Victory

Last reported at 2017-Dec-01 13:00 UTC. Time now 2017-Dec-11 00:16 UTC.
Position S 28°15' E 035°45'.
Warning: this ship's position is 9 days out of date.

Length 225 m; draft 6.8 m.

Type: Cargo ship. MMSI: 370090000.

Date/timePositionNaut miles runAvg speedWind from/ knotsBaromVisibWave heightAir tempDewpointWater temp
2017-Dec-01 13:00S 28°15' E 035°45'  
2017-Nov-29 03:26S 28°49' E 032°03'0 0.0
2017-Nov-29 02:50S 28°49' E 032°03'0 0.0
2017-Nov-29 02:26S 28°49' E 032°03'0 0.0
2017-Nov-29 01:58S 28°49' E 032°03'2 2.9
2017-Nov-29 01:27S 28°48' E 032°04'4 9.2
2017-Nov-29 01:00S 28°50' E 032°08'1 3.0
2017-Nov-29 00:30S 28°52' E 032°09'1 1.4
2017-Nov-28 23:56S 28°53' E 032°09'0 0.6
2017-Nov-28 23:30S 28°53' E 032°08'4 7.6
2017-Nov-28 23:00S 28°56' E 032°07'1 2.3
2017-Nov-28 22:28S 28°58' E 032°07'0 0.0
2017-Nov-28 21:34S 28°58' E 032°07'0 0.0
2017-Nov-28 21:22S 28°58' E 032°07'0 0.0
2017-Nov-28 17:10S 28°58' E 032°07'0 0.2
2017-Nov-28 16:46S 28°58' E 032°07'0 0.1
2017-Nov-28 16:28S 28°58' E 032°07'0 0.1
2017-Nov-28 15:58S 28°58' E 032°07'0 0.0
2017-Nov-28 14:52S 28°58' E 032°07'0 0.1
2017-Nov-28 14:22S 28°58' E 032°07'0 0.0
2017-Nov-28 13:25S 28°58' E 032°07'0 0.2
2017-Nov-28 12:58S 28°58' E 032°07'0 0.1
2017-Nov-28 12:22S 28°58' E 032°07'0 0.0
2017-Nov-26 11:41S 28°57' E 032°07'0 0.0
2017-Nov-26 11:17S 28°57' E 032°07'0 0.0
2017-Nov-26 10:59S 28°57' E 032°07'0 0.0
2017-Nov-26 01:29S 28°57' E 032°07'0 0.0
2017-Nov-24 03:35S 28°57' E 032°07'0 0.0
2017-Nov-24 03:11S 28°57' E 032°07'0 0.0
2017-Nov-24 02:56S 28°57' E 032°07'  

Dump ship's entire track history